Time;durP1;ratioP1;P1;durP2;ratioP2;P2;SDS_P1;SDS_P2;PMS_P1;PMS_P2;Temp;Humidity;BMP_temperature;BMP_pressure;BME280_temperature;BME280_humidity;BME280_pressure;Samples;Min_cycle;Max_cycle;Signal;HPM_P1;HPM_P2
2023/06/17 00:01:05;;;;;;;15.35;10.10;;;;;;;;;;5097579;28;20546;-82
2023/06/17 00:03:32;;;;;;;14.57;9.55;;;;;;;;;;5097499;28;20062;-81
2023/06/17 00:05:58;;;;;;;12.77;9.65;;;;;;;;;;5097585;28;20099;-81
2023/06/17 00:08:24;;;;;;;12.45;8.88;;;;;;;;;;5097496;28;20035;-82
2023/06/17 00:10:50;;;;;;;11.98;9.40;;;;;;;;;;5078892;28;20047;-81
2023/06/17 00:13:25;;;;;;;12.77;9.02;;;;;;;;;;5096622;28;20456;-81
2023/06/17 00:15:56;;;;;;;14.20;9.38;;;;;;;;;;5096579;28;20029;-81
2023/06/17 00:18:32;;;;;;;13.50;9.50;;;;;;;;;;5076590;28;20533;-80
2023/06/17 00:20:58;;;;;;;14.77;9.07;;;;;;;;;;5097276;28;20023;-80
2023/06/17 00:23:24;;;;;;;13.70;9.70;;;;;;;;;;5079150;28;20032;-81
2023/06/17 00:25:50;;;;;;;15.65;10.05;;;;;;;;;;5096531;28;20091;-81
2023/06/17 00:28:16;;;;;;;15.93;10.10;;;;;;;;;;5096616;28;20012;-80
2023/06/17 00:30:42;;;;;;;13.85;10.52;;;;;;;;;;5057625;28;20090;-79
2023/06/17 00:33:08;;;;;;;16.35;10.32;;;;;;;;;;5075638;28;20113;-80
2023/06/17 00:35:39;;;;;;;13.13;9.60;;;;;;;;;;5075446;28;20452;-82
2023/06/17 00:38:04;;;;;;;20.08;11.75;;;;;;;;;;5057084;28;20025;-79
2023/06/17 00:40:29;;;;;;;15.18;9.93;;;;;;;;;;5075058;28;20533;-80
2023/06/17 00:43:13;;;;;;;17.38;10.30;;;;;;;;;;5056964;28;20024;-80
2023/06/17 00:46:03;;;;;;;18.63;9.82;;;;;;;;;;5074893;28;20067;-80
2023/06/17 00:48:30;;;;;;;18.10;10.45;;;;;;;;;;5075690;28;20510;-81
2023/06/17 00:51:01;;;;;;;16.00;9.98;;;;;;;;;;5076173;28;20090;-80
2023/06/17 00:53:27;;;;;;;12.45;9.98;;;;;;;;;;5075986;28;20081;-80
2023/06/17 00:55:56;;;;;;;15.40;10.75;;;;;;;;;;5058324;28;20033;-80
2023/06/17 00:58:21;;;;;;;17.00;10.45;;;;;;;;;;5076677;28;20016;-80
2023/06/17 01:00:48;;;;;;;15.68;10.68;;;;;;;;;;5057311;28;20040;-80
2023/06/17 01:03:17;;;;;;;15.52;9.70;;;;;;;;;;5075449;28;20108;-80
2023/06/17 01:05:47;;;;;;;13.90;10.38;;;;;;;;;;5058985;28;20498;-82
2023/06/17 01:08:28;;;;;;;14.30;10.10;;;;;;;;;;5075795;28;20032;-81
2023/06/17 01:11:03;;;;;;;16.92;10.52;;;;;;;;;;5075915;28;20104;-81
2023/06/17 01:13:29;;;;;;;13.95;10.70;;;;;;;;;;5057981;28;20465;-81
2023/06/17 01:15:55;;;;;;;16.38;9.73;;;;;;;;;;5058186;28;20074;-80
2023/06/17 01:18:25;;;;;;;18.08;11.30;;;;;;;;;;5058177;28;20021;-83
2023/06/17 01:20:53;;;;;;;17.42;11.50;;;;;;;;;;5058516;28;20453;-83
2023/06/17 01:23:21;;;;;;;17.05;10.85;;;;;;;;;;5076066;28;20031;-81
2023/06/17 01:25:57;;;;;;;15.98;11.48;;;;;;;;;;5058268;28;20025;-83
2023/06/17 01:28:24;;;;;;;14.07;10.32;;;;;;;;;;5075884;28;20025;-82
2023/06/17 01:30:55;;;;;;;21.38;11.40;;;;;;;;;;5057791;28;20388;-81
2023/06/17 01:33:24;;;;;;;15.93;10.70;;;;;;;;;;5057452;28;20017;-81
2023/06/17 01:36:10;;;;;;;14.30;11.13;;;;;;;;;;5057286;28;20021;-81
2023/06/17 01:38:43;;;;;;;19.13;11.18;;;;;;;;;;5057731;28;20502;-81
2023/06/17 01:41:11;;;;;;;15.73;11.15;;;;;;;;;;5056918;28;20043;-82
2023/06/17 01:43:43;;;;;;;19.98;11.82;;;;;;;;;;5055457;28;20392;-81
2023/06/17 01:46:30;;;;;;;15.70;12.15;;;;;;;;;;5074282;28;20343;-82
2023/06/17 01:48:55;;;;;;;13.25;10.60;;;;;;;;;;5074029;28;20025;-82
2023/06/17 01:51:21;;;;;;;19.52;11.98;;;;;;;;;;5056128;28;20384;-82
2023/06/17 01:53:47;;;;;;;18.25;11.52;;;;;;;;;;5055537;28;20070;-81
2023/06/17 01:56:12;;;;;;;15.18;10.18;;;;;;;;;;5073863;28;20052;-82
2023/06/17 01:58:38;;;;;;;13.77;10.95;;;;;;;;;;5074475;28;20416;-81
2023/06/17 02:01:12;;;;;;;19.73;11.52;;;;;;;;;;5074516;28;20024;-82
2023/06/17 02:03:38;;;;;;;17.45;11.80;;;;;;;;;;5074516;28;20422;-83
2023/06/17 02:06:03;;;;;;;18.60;11.50;;;;;;;;;;5056174;28;20055;-81
2023/06/17 02:08:32;;;;;;;17.38;11.32;;;;;;;;;;5067190;28;20025;-81
2023/06/17 02:11:11;;;;;;;16.95;11.05;;;;;;;;;;5034829;28;20384;-82
2023/06/17 02:13:42;;;;;;;24.90;11.68;;;;;;;;;;5036097;28;20055;-82
2023/06/17 02:16:07;;;;;;;17.05;11.25;;;;;;;;;;5036304;28;20128;-82
2023/06/17 02:18:39;;;;;;;18.00;12.00;;;;;;;;;;5054238;28;20044;-82
2023/06/17 02:21:05;;;;;;;20.02;11.20;;;;;;;;;;5053831;28;20029;-82
2023/06/17 02:23:30;;;;;;;15.38;11.25;;;;;;;;;;5054176;28;20075;-82
2023/06/17 02:26:04;;;;;;;14.98;10.68;;;;;;;;;;5054366;28;20032;-81
2023/06/17 02:28:30;;;;;;;14.55;10.23;;;;;;;;;;5036299;28;20025;-81
2023/06/17 02:30:56;;;;;;;18.08;10.32;;;;;;;;;;5054252;28;20021;-82
2023/06/17 02:33:22;;;;;;;19.08;10.43;;;;;;;;;;5054111;28;20017;-82
2023/06/17 02:35:48;;;;;;;13.25;8.70;;;;;;;;;;5054581;28;20443;-82
2023/06/17 02:38:15;;;;;;;16.05;9.98;;;;;;;;;;5037310;28;20048;-81
2023/06/17 02:40:41;;;;;;;20.45;10.10;;;;;;;;;;5055938;28;20468;-82
2023/06/17 02:43:06;;;;;;;12.70;9.88;;;;;;;;;;5054770;28;20028;-82
2023/06/17 02:45:32;;;;;;;15.43;9.48;;;;;;;;;;5069500;28;20048;-81
2023/06/17 02:47:58;;;;;;;17.20;9.32;;;;;;;;;;5074321;28;20165;-82
2023/06/17 02:50:23;;;;;;;17.00;9.85;;;;;;;;;;5056460;28;20342;-82
2023/06/17 02:52:55;;;;;;;17.42;9.50;;;;;;;;;;5074089;28;20165;-82
2023/06/17 02:55:20;;;;;;;;;;;;;;;;;;5057752;28;20028;-83
2023/06/17 02:57:45;;;;;;;14.00;9.27;;;;;;;;;;5055577;28;19904;-76
2023/06/17 03:00:12;;;;;;;15.67;9.13;;;;;;;;;;5073435;28;20115;-80
2023/06/17 03:02:39;;;;;;;17.48;9.57;;;;;;;;;;5056847;28;20677;-82
2023/06/17 03:05:07;;;;;;;13.82;9.02;;;;;;;;;;5074570;28;20024;-82
2023/06/17 03:07:40;;;;;;;12.98;8.90;;;;;;;;;;5074354;28;20016;-81
2023/06/17 03:10:06;;;;;;;15.88;9.10;;;;;;;;;;5074319;28;20029;-82
2023/06/17 03:12:32;;;;;;;18.35;9.23;;;;;;;;;;5073979;28;20025;-82
2023/06/17 03:14:57;;;;;;;14.27;8.90;;;;;;;;;;5074016;28;20012;-82
2023/06/17 03:17:24;;;;;;;14.33;8.50;;;;;;;;;;5073857;28;20312;-82
2023/06/17 03:19:51;;;;;;;16.10;9.60;;;;;;;;;;5056569;28;20348;-83
2023/06/17 03:22:16;;;;;;;13.13;9.18;;;;;;;;;;5074460;28;20027;-81
2023/06/17 03:24:41;;;;;;;15.65;7.70;;;;;;;;;;5060307;28;20380;-81
2023/06/17 03:27:08;;;;;;;12.10;8.95;;;;;;;;;;5060130;28;20064;-82
2023/06/17 03:29:37;;;;;;;12.23;7.82;;;;;;;;;;5078290;28;20344;-82
2023/06/17 03:32:05;;;;;;;20.58;8.80;;;;;;;;;;5077702;28;20051;-82
2023/06/17 03:34:35;;;;;;;11.90;8.27;;;;;;;;;;5078200;28;20401;-82
2023/06/17 03:37:02;;;;;;;17.35;9.30;;;;;;;;;;5079532;28;20020;-82
2023/06/17 03:39:27;;;;;;;11.35;7.70;;;;;;;;;;5079735;28;20016;-81
2023/06/17 03:41:54;;;;;;;12.23;8.13;;;;;;;;;;5078559;28;20048;-81
2023/06/17 03:44:20;;;;;;;12.80;8.35;;;;;;;;;;5076599;28;20322;-82
2023/06/17 03:46:45;;;;;;;12.98;8.35;;;;;;;;;;5080407;28;20124;-83
2023/06/17 03:49:11;;;;;;;14.18;8.05;;;;;;;;;;5085219;28;20468;-82
2023/06/17 03:51:37;;;;;;;15.50;7.88;;;;;;;;;;5047006;28;20097;-81
2023/06/17 03:54:02;;;;;;;14.55;7.85;;;;;;;;;;5078036;28;20039;-81
2023/06/17 03:56:28;;;;;;;12.65;7.55;;;;;;;;;;5060280;28;20032;-81
2023/06/17 03:58:54;;;;;;;16.95;7.65;;;;;;;;;;5077736;28;20021;-82
2023/06/17 04:01:20;;;;;;;14.98;8.70;;;;;;;;;;5076907;28;20020;-81
2023/06/17 04:03:45;;;;;;;14.32;7.65;;;;;;;;;;5059710;28;20104;-82
2023/06/17 04:06:11;;;;;;;15.02;7.38;;;;;;;;;;5076585;28;20044;-82
2023/06/17 04:08:37;;;;;;;10.73;7.30;;;;;;;;;;5059134;28;20094;-82
2023/06/17 04:11:03;;;;;;;13.80;7.90;;;;;;;;;;5077124;28;20369;-81
2023/06/17 04:13:30;;;;;;;15.20;8.45;;;;;;;;;;5059022;28;20075;-81
2023/06/17 04:15:56;;;;;;;22.30;8.55;;;;;;;;;;5077269;28;20016;-81
2023/06/17 04:18:30;;;;;;;14.18;7.43;;;;;;;;;;5064188;28;20428;-81
2023/06/17 04:20:56;;;;;;;16.33;7.40;;;;;;;;;;5085678;28;20020;-81
2023/06/17 04:23:24;;;;;;;15.15;7.80;;;;;;;;;;5085323;28;20020;-80
2023/06/17 04:25:50;;;;;;;14.93;7.43;;;;;;;;;;5082343;28;20024;-82
2023/06/17 04:28:25;;;;;;;13.82;7.32;;;;;;;;;;5061665;28;20040;-82
2023/06/17 04:30:51;;;;;;;16.25;7.35;;;;;;;;;;5058290;28;20043;-82
2023/06/17 04:33:16;;;;;;;10.00;6.80;;;;;;;;;;5076707;28;20030;-82
2023/06/17 04:35:42;;;;;;;10.90;6.30;;;;;;;;;;5075438;28;20096;-80
2023/06/17 04:38:11;;;;;;;12.52;6.38;;;;;;;;;;5076068;28;20372;-82
2023/06/17 04:40:39;;;;;;;14.40;6.43;;;;;;;;;;5076834;28;20024;-81
2023/06/17 04:43:05;;;;;;;8.05;5.93;;;;;;;;;;5076864;28;20536;-82
2023/06/17 04:45:31;;;;;;;8.07;5.90;;;;;;;;;;5076075;28;20056;-81
2023/06/17 04:47:58;;;;;;;13.60;6.53;;;;;;;;;;5076380;28;20020;-82
2023/06/17 04:50:24;;;;;;;13.75;6.88;;;;;;;;;;5076249;28;20024;-83
2023/06/17 04:52:51;;;;;;;15.18;7.53;;;;;;;;;;5058038;28;20392;-81
2023/06/17 04:55:18;;;;;;;8.52;6.00;;;;;;;;;;5075867;28;20453;-82
2023/06/17 04:57:45;;;;;;;8.52;6.00;;;;;;;;;;5076606;28;20456;-82
2023/06/17 05:00:12;;;;;;;9.23;6.13;;;;;;;;;;5058635;28;20025;-83
2023/06/17 05:02:39;;;;;;;14.60;6.60;;;;;;;;;;5058887;28;20465;-82
2023/06/17 05:05:06;;;;;;;10.63;6.15;;;;;;;;;;5058481;28;20037;-82
2023/06/17 05:07:32;;;;;;;10.55;6.68;;;;;;;;;;5058371;28;20092;-83
2023/06/17 05:09:57;;;;;;;9.77;5.82;;;;;;;;;;5042734;28;20071;-81
2023/06/17 05:12:23;;;;;;;9.53;6.00;;;;;;;;;;5077888;28;20024;-83
2023/06/17 05:14:49;;;;;;;9.13;6.40;;;;;;;;;;5076557;28;20366;-82
2023/06/17 05:17:15;;;;;;;15.82;6.50;;;;;;;;;;5077316;28;20401;-81
2023/06/17 05:19:40;;;;;;;13.07;5.55;;;;;;;;;;5076706;28;20375;-83
2023/06/17 05:22:08;;;;;;;12.75;6.07;;;;;;;;;;5076462;28;20421;-80
2023/06/17 05:24:34;;;;;;;14.80;5.70;;;;;;;;;;5041246;28;20520;-78
2023/06/17 05:27:00;;;;;;;9.25;5.57;;;;;;;;;;5075645;28;20377;-76
2023/06/17 05:29:27;;;;;;;12.02;5.35;;;;;;;;;;5075479;28;20431;-76
2023/06/17 05:31:52;;;;;;;9.77;5.32;;;;;;;;;;5075005;28;20032;-77
2023/06/17 05:34:19;;;;;;;8.33;5.07;;;;;;;;;;5074413;28;20115;-76
2023/06/17 05:36:45;;;;;;;9.80;6.05;;;;;;;;;;5074503;28;20354;-77
2023/06/17 05:39:11;;;;;;;12.23;5.35;;;;;;;;;;5074543;28;20020;-76
2023/06/17 05:41:38;;;;;;;8.00;5.05;;;;;;;;;;5075795;28;20024;-78
2023/06/17 05:44:03;;;;;;;11.52;5.28;;;;;;;;;;5056464;28;20024;-74
2023/06/17 05:46:28;;;;;;;8.82;5.45;;;;;;;;;;5056550;28;20389;-73
2023/06/17 05:48:54;;;;;;;8.07;4.87;;;;;;;;;;5074747;28;20059;-73
2023/06/17 05:51:20;;;;;;;9.45;5.90;;;;;;;;;;5074538;28;20274;-73
2023/06/17 05:53:46;;;;;;;7.33;5.40;;;;;;;;;;5073813;28;20036;-74
2023/06/17 05:56:12;;;;;;;7.32;4.70;;;;;;;;;;5074502;28;20266;-75
2023/06/17 05:58:38;;;;;;;12.32;5.97;;;;;;;;;;5074394;28;20330;-73
2023/06/17 06:01:05;;;;;;;8.70;5.00;;;;;;;;;;5074295;28;20044;-75
2023/06/17 06:03:33;;;;;;;8.05;5.65;;;;;;;;;;5056281;28;20107;-74
2023/06/17 06:05:58;;;;;;;6.47;5.30;;;;;;;;;;5074081;28;20017;-76
2023/06/17 06:08:24;;;;;;;7.57;6.57;;;;;;;;;;5074382;28;20028;-74
2023/06/17 06:10:59;;;;;;;7.25;4.53;;;;;;;;;;5073810;28;20361;-74
2023/06/17 06:13:24;;;;;;;8.73;5.82;;;;;;;;;;5073749;28;20021;-74
2023/06/17 06:15:49;;;;;;;12.50;5.53;;;;;;;;;;5074472;28;20047;-75
2023/06/17 06:18:15;;;;;;;8.13;5.33;;;;;;;;;;5072492;28;20453;-74
2023/06/17 06:20:41;;;;;;;6.40;5.13;;;;;;;;;;5075010;28;20435;-74
2023/06/17 06:23:06;;;;;;;8.63;5.28;;;;;;;;;;5093079;28;20323;-73
2023/06/17 06:25:31;;;;;;;9.20;5.20;;;;;;;;;;5093366;28;20032;-74
2023/06/17 06:27:58;;;;;;;10.27;6.00;;;;;;;;;;5093398;28;20269;-73
2023/06/17 06:30:24;;;;;;;8.57;5.63;;;;;;;;;;5093332;28;20063;-73
2023/06/17 06:32:49;;;;;;;10.20;5.50;;;;;;;;;;5093038;28;20105;-73
2023/06/17 06:35:15;;;;;;;7.55;5.65;;;;;;;;;;5093021;28;20028;-73
2023/06/17 06:37:41;;;;;;;16.88;5.90;;;;;;;;;;5078319;28;20058;-71
2023/06/17 06:40:20;;;;;;;7.37;4.90;;;;;;;;;;5072451;28;20021;-74
2023/06/17 06:42:46;;;;;;;8.75;5.47;;;;;;;;;;5073223;28;20453;-74
2023/06/17 06:45:12;;;;;;;12.18;5.85;;;;;;;;;;5072640;28;20040;-73
2023/06/17 06:47:38;;;;;;;13.75;6.38;;;;;;;;;;5073757;28;20036;-74
2023/06/17 06:50:12;;;;;;;9.90;5.32;;;;;;;;;;5073480;28;20572;-74
2023/06/17 06:52:39;;;;;;;11.88;5.68;;;;;;;;;;5073326;28;20138;-73
2023/06/17 06:55:05;;;;;;;8.45;6.38;;;;;;;;;;5072656;28;20024;-75
2023/06/17 06:57:31;;;;;;;7.57;5.60;;;;;;;;;;5054421;28;20028;-70
2023/06/17 06:59:57;;;;;;;8.35;5.32;;;;;;;;;;5073028;28;20036;-70
2023/06/17 07:02:24;;;;;;;7.85;5.78;;;;;;;;;;5073092;28;20032;-71
2023/06/17 07:04:51;;;;;;;8.13;5.30;;;;;;;;;;5055568;28;20032;-74
2023/06/17 07:07:17;;;;;;;8.50;5.57;;;;;;;;;;5073596;28;20024;-73
2023/06/17 07:09:42;;;;;;;8.77;5.60;;;;;;;;;;5073619;28;20377;-74
2023/06/17 07:12:08;;;;;;;10.13;5.55;;;;;;;;;;5073670;28;20452;-72
2023/06/17 07:14:34;;;;;;;7.22;5.20;;;;;;;;;;5073552;28;20044;-74
2023/06/17 07:16:59;;;;;;;9.15;5.30;;;;;;;;;;5073345;28;20372;-73
2023/06/17 07:19:24;;;;;;;7.40;5.38;;;;;;;;;;5073363;28;20020;-74
2023/06/17 07:21:50;;;;;;;6.63;5.00;;;;;;;;;;5073335;28;20373;-73
2023/06/17 07:24:16;;;;;;;9.27;4.80;;;;;;;;;;5072988;28;20024;-73
2023/06/17 07:26:43;;;;;;;5.82;4.80;;;;;;;;;;5073090;28;20012;-74
2023/06/17 07:29:08;;;;;;;8.18;5.60;;;;;;;;;;5055109;28;20044;-73
2023/06/17 07:31:34;;;;;;;7.23;4.93;;;;;;;;;;5072960;28;20376;-72
2023/06/17 07:34:01;;;;;;;7.57;4.60;;;;;;;;;;5073049;28;20086;-74
2023/06/17 07:36:26;;;;;;;7.28;4.90;;;;;;;;;;5073454;28;20013;-74
2023/06/17 07:38:52;;;;;;;7.83;4.80;;;;;;;;;;5072954;28;20027;-73
2023/06/17 07:41:20;;;;;;;6.57;5.05;;;;;;;;;;5073254;28;20304;-72
2023/06/17 07:43:45;;;;;;;6.68;5.50;;;;;;;;;;5072749;28;20357;-74
2023/06/17 07:46:11;;;;;;;5.07;4.57;;;;;;;;;;5072556;28;20047;-72
2023/06/17 07:48:37;;;;;;;11.25;5.50;;;;;;;;;;5073156;28;20090;-72
2023/06/17 07:51:02;;;;;;;5.47;4.88;;;;;;;;;;5073037;28;20039;-74
2023/06/17 07:53:29;;;;;;;8.77;5.27;;;;;;;;;;5074558;28;20457;-74
2023/06/17 07:55:55;;;;;;;5.55;4.93;;;;;;;;;;5073867;28;20021;-73
2023/06/17 07:58:29;;;;;;;8.43;5.22;;;;;;;;;;5073848;28;20052;-71
2023/06/17 08:00:55;;;;;;;9.63;5.68;;;;;;;;;;5075412;28;20492;-73
2023/06/17 08:03:20;;;;;;;6.88;5.13;;;;;;;;;;5077623;28;20020;-73
2023/06/17 08:05:48;;;;;;;9.25;4.85;;;;;;;;;;5077615;28;20019;-74
2023/06/17 08:08:13;;;;;;;5.63;5.03;;;;;;;;;;5074420;28;20036;-74
2023/06/17 08:10:39;;;;;;;8.80;5.27;;;;;;;;;;5075302;28;20042;-74
2023/06/17 08:13:06;;;;;;;7.53;4.90;;;;;;;;;;5075924;28;20036;-73
2023/06/17 08:15:32;;;;;;;7.13;4.97;;;;;;;;;;5058085;28;20020;-71
2023/06/17 08:17:59;;;;;;;6.03;4.85;;;;;;;;;;5075838;28;20070;-73
2023/06/17 08:20:25;;;;;;;5.70;4.60;;;;;;;;;;5076136;28;20017;-75
2023/06/17 08:22:52;;;;;;;9.75;5.40;;;;;;;;;;5075584;28;20104;-73
2023/06/17 08:25:18;;;;;;;5.25;4.25;;;;;;;;;;5075909;28;20048;-73
2023/06/17 08:27:47;;;;;;;5.28;4.75;;;;;;;;;;5075784;28;20032;-73
2023/06/17 08:30:14;;;;;;;5.90;4.90;;;;;;;;;;5075960;28;20142;-73
2023/06/17 08:32:39;;;;;;;7.43;4.75;;;;;;;;;;5087949;28;20028;-75
2023/06/17 08:35:06;;;;;;;8.20;5.70;;;;;;;;;;5096226;28;20476;-75
2023/06/17 08:37:32;;;;;;;6.40;5.50;;;;;;;;;;5095888;28;20273;-74
2023/06/17 08:39:57;;;;;;;6.88;5.25;;;;;;;;;;5077756;28;20028;-73
2023/06/17 08:42:22;;;;;;;6.47;5.87;;;;;;;;;;5095955;28;20050;-74
2023/06/17 08:44:50;;;;;;;26.10;6.57;;;;;;;;;;5095656;28;20055;-73
2023/06/17 08:47:16;;;;;;;16.30;6.20;;;;;;;;;;5096313;28;20464;-73
2023/06/17 08:49:42;;;;;;;20.55;6.18;;;;;;;;;;5096160;28;20031;-74
2023/06/17 08:52:08;;;;;;;10.40;5.90;;;;;;;;;;5078080;28;20043;-74
2023/06/17 08:54:40;;;;;;;9.67;5.73;;;;;;;;;;5095963;28;20027;-74
2023/06/17 08:57:16;;;;;;;7.00;5.10;;;;;;;;;;5096075;28;20016;-74
2023/06/17 08:59:41;;;;;;;8.18;4.70;;;;;;;;;;5096008;28;20349;-74
2023/06/17 09:02:10;;;;;;;5.35;4.60;;;;;;;;;;5096038;28;20474;-73
2023/06/17 09:04:36;;;;;;;6.78;5.38;;;;;;;;;;5061161;28;20491;-73
2023/06/17 09:07:02;;;;;;;7.53;4.47;;;;;;;;;;5095703;28;20027;-76
2023/06/17 09:09:29;;;;;;;11.48;5.15;;;;;;;;;;5077555;28;20036;-74
2023/06/17 09:11:55;;;;;;;8.88;5.25;;;;;;;;;;5077683;28;20112;-75
2023/06/17 09:14:28;;;;;;;5.28;4.57;;;;;;;;;;5096026;28;20116;-76
2023/06/17 09:16:55;;;;;;;9.05;5.20;;;;;;;;;;5095407;28;20124;-75
2023/06/17 09:19:22;;;;;;;6.10;4.57;;;;;;;;;;5095339;28;20020;-76
2023/06/17 09:21:48;;;;;;;7.85;4.90;;;;;;;;;;5094756;28;20028;-74
2023/06/17 09:24:13;;;;;;;9.45;4.55;;;;;;;;;;5077338;28;20028;-76
2023/06/17 09:26:44;;;;;;;4.43;3.88;;;;;;;;;;5095316;28;20432;-75
2023/06/17 09:29:18;;;;;;;5.68;4.22;;;;;;;;;;5095465;28;20020;-75
2023/06/17 09:31:53;;;;;;;7.72;4.38;;;;;;;;;;5095184;28;20058;-73
2023/06/17 09:34:19;;;;;;;6.60;4.18;;;;;;;;;;5095283;28;20352;-75
2023/06/17 09:36:52;;;;;;;4.47;4.07;;;;;;;;;;5060092;28;20030;-73
2023/06/17 09:39:18;;;;;;;13.30;4.45;;;;;;;;;;5077188;28;20028;-75
2023/06/17 09:41:44;;;;;;;5.82;4.80;;;;;;;;;;5095244;28;20476;-75
2023/06/17 09:44:11;;;;;;;10.57;5.07;;;;;;;;;;5076453;28;20496;-76
2023/06/17 09:46:39;;;;;;;7.53;4.70;;;;;;;;;;5094826;28;20409;-75
2023/06/17 09:49:12;;;;;;;8.45;5.00;;;;;;;;;;5094958;28;20091;-75
2023/06/17 09:51:38;;;;;;;6.50;4.78;;;;;;;;;;5076868;28;20024;-75
2023/06/17 09:54:04;;;;;;;6.80;4.53;;;;;;;;;;5076580;28;20023;-74
2023/06/17 09:56:43;;;;;;;6.80;4.85;;;;;;;;;;5094868;28;20073;-74
2023/06/17 09:59:14;;;;;;;5.63;4.85;;;;;;;;;;5094921;28;20063;-75
2023/06/17 10:01:39;;;;;;;8.10;4.88;;;;;;;;;;5094979;28;20028;-76
2023/06/17 10:04:07;;;;;;;6.57;4.88;;;;;;;;;;5095072;28;20517;-76
2023/06/17 10:06:37;;;;;;;6.70;4.90;;;;;;;;;;5076473;28;20050;-77
2023/06/17 10:09:24;;;;;;;7.32;4.97;;;;;;;;;;5094411;28;20437;-76
2023/06/17 10:11:53;;;;;;;9.50;5.32;;;;;;;;;;5093924;28;20085;-77
2023/06/17 10:14:27;;;;;;;5.43;4.45;;;;;;;;;;5076325;28;20071;-77
2023/06/17 10:16:54;;;;;;;6.95;4.70;;;;;;;;;;5094522;28;20074;-76
2023/06/17 10:19:26;;;;;;;7.53;4.30;;;;;;;;;;5076321;28;20038;-76
2023/06/17 10:21:53;;;;;;;4.63;4.10;;;;;;;;;;5076354;28;20038;-76
2023/06/17 10:24:22;;;;;;;4.45;4.05;;;;;;;;;;5094019;28;20048;-75
2023/06/17 10:26:52;;;;;;;6.97;5.03;;;;;;;;;;5076410;28;20039;-75
2023/06/17 10:29:25;;;;;;;10.43;4.63;;;;;;;;;;5093932;28;20036;-75
2023/06/17 10:31:52;;;;;;;5.63;4.70;;;;;;;;;;5093520;28;20077;-73
2023/06/17 10:34:22;;;;;;;6.93;4.50;;;;;;;;;;5093846;28;20023;-76
2023/06/17 10:36:58;;;;;;;16.63;5.40;;;;;;;;;;5075805;28;20031;-75
2023/06/17 10:39:24;;;;;;;8.32;4.75;;;;;;;;;;5075691;28;20024;-75
2023/06/17 10:41:51;;;;;;;10.32;5.05;;;;;;;;;;5075950;28;20044;-77
2023/06/17 10:44:34;;;;;;;9.18;4.50;;;;;;;;;;5093686;28;20020;-76
2023/06/17 10:47:13;;;;;;;16.67;7.50;;;;;;;;;;5093730;28;20040;-76
2023/06/17 10:49:39;;;;;;;5.30;4.80;;;;;;;;;;5093922;28;20024;-77
2023/06/17 10:52:18;;;;;;;6.57;4.63;;;;;;;;;;5075780;28;20081;-77
2023/06/17 10:54:45;;;;;;;5.95;4.10;;;;;;;;;;5075722;28;20051;-74
2023/06/17 10:57:11;;;;;;;7.95;4.30;;;;;;;;;;5075938;28;20095;-75
2023/06/17 10:59:38;;;;;;;5.90;4.23;;;;;;;;;;5093088;28;20075;-76
2023/06/17 11:02:08;;;;;;;5.72;5.18;;;;;;;;;;5094066;28;20024;-76
2023/06/17 11:04:40;;;;;;;5.75;5.07;;;;;;;;;;5093618;28;20019;-77
2023/06/17 11:07:07;;;;;;;7.85;5.47;;;;;;;;;;5093807;28;20024;-76
2023/06/17 11:09:34;;;;;;;8.77;5.07;;;;;;;;;;5075511;28;20047;-79
2023/06/17 11:12:10;;;;;;;6.32;4.53;;;;;;;;;;5093676;28;20097;-79
2023/06/17 11:14:46;;;;;;;5.43;4.93;;;;;;;;;;5093236;28;20096;-78
2023/06/17 11:17:11;;;;;;;6.72;5.20;;;;;;;;;;5093574;28;20039;-77
2023/06/17 11:19:37;;;;;;;7.17;5.13;;;;;;;;;;5093755;28;20070;-76
2023/06/17 11:22:03;;;;;;;8.15;4.90;;;;;;;;;;5093512;28;20024;-76
2023/06/17 11:24:32;;;;;;;8.00;5.35;;;;;;;;;;5093088;28;20020;-74
2023/06/17 11:26:58;;;;;;;7.32;4.82;;;;;;;;;;5092873;28;20464;-74
2023/06/17 11:29:27;;;;;;;5.53;4.53;;;;;;;;;;5092164;28;20095;-75
2023/06/17 11:31:59;;;;;;;5.15;4.10;;;;;;;;;;5074589;28;20499;-74
2023/06/17 11:34:25;;;;;;;5.25;4.55;;;;;;;;;;5093241;28;20032;-73
2023/06/17 11:36:53;;;;;;;6.93;5.43;;;;;;;;;;5067287;28;20047;-72
2023/06/17 11:39:22;;;;;;;4.78;4.05;;;;;;;;;;5075962;28;20071;-80
2023/06/17 11:41:52;;;;;;;6.03;3.42;;;;;;;;;;5074527;28;20461;-74
2023/06/17 11:44:18;;;;;;;5.78;3.50;;;;;;;;;;5077690;28;20020;-74
2023/06/17 11:47:06;;;;;;;3.63;3.33;;;;;;;;;;5061150;28;20032;-76
2023/06/17 11:49:40;;;;;;;3.80;3.50;;;;;;;;;;5080942;28;20498;-78
2023/06/17 11:52:08;;;;;;;3.80;3.42;;;;;;;;;;5050913;28;20122;-78
2023/06/17 11:54:34;;;;;;;4.85;3.53;;;;;;;;;;5069799;28;20520;-77
2023/06/17 11:56:59;;;;;;;4.65;3.83;;;;;;;;;;5075858;28;20019;-78
2023/06/17 11:59:28;;;;;;;5.35;3.40;;;;;;;;;;5072599;28;20012;-77
2023/06/17 12:01:54;;;;;;;4.78;3.47;;;;;;;;;;5084197;28;20035;-75
2023/06/17 12:04:22;;;;;;;6.10;3.58;;;;;;;;;;5082768;28;20012;-75
2023/06/17 12:06:47;;;;;;;7.13;3.75;;;;;;;;;;5081105;28;20017;-78
2023/06/17 12:09:13;;;;;;;3.90;3.60;;;;;;;;;;5066297;28;20069;-77
2023/06/17 12:11:39;;;;;;;5.45;4.07;;;;;;;;;;5061273;28;20051;-77
2023/06/17 12:14:05;;;;;;;5.00;3.92;;;;;;;;;;5079432;28;20085;-79
2023/06/17 12:16:37;;;;;;;5.22;3.97;;;;;;;;;;5080623;28;20051;-77
2023/06/17 12:19:03;;;;;;;;;;;;;;;;;;5064914;28;20374;-82
2023/06/17 12:21:36;;;;;;;7.63;4.68;;;;;;;;;;5077687;28;19977;-83
2023/06/17 12:24:03;;;;;;;5.15;4.57;;;;;;;;;;5077585;28;20025;-77
2023/06/17 12:26:30;;;;;;;5.03;4.50;;;;;;;;;;5058843;28;20171;-77
2023/06/17 12:28:58;;;;;;;5.68;4.78;;;;;;;;;;5078983;28;20021;-75
2023/06/17 12:31:25;;;;;;;5.13;4.53;;;;;;;;;;5059563;28;20031;-76
2023/06/17 12:33:54;;;;;;;6.40;5.22;;;;;;;;;;5061634;28;20094;-74
2023/06/17 12:36:20;;;;;;;5.53;4.32;;;;;;;;;;5079757;28;20078;-76
2023/06/17 12:38:45;;;;;;;6.60;4.82;;;;;;;;;;5078070;28;20005;-75
2023/06/17 12:41:11;;;;;;;7.03;4.55;;;;;;;;;;5077872;28;20099;-78
2023/06/17 12:43:38;;;;;;;10.48;4.95;;;;;;;;;;5060056;28;20052;-77
2023/06/17 12:46:05;;;;;;;5.88;4.38;;;;;;;;;;5078345;28;20044;-76
2023/06/17 12:48:34;;;;;;;6.50;4.72;;;;;;;;;;5078229;28;20081;-77
2023/06/17 12:51:00;;;;;;;6.15;4.53;;;;;;;;;;5078915;28;20104;-76
2023/06/17 12:53:27;;;;;;;7.70;4.60;;;;;;;;;;5083223;28;20078;-79
2023/06/17 12:55:55;;;;;;;4.85;4.35;;;;;;;;;;5063645;28;20016;-77
2023/06/17 12:58:22;;;;;;;4.50;3.88;;;;;;;;;;5079252;28;20099;-79
2023/06/17 13:00:49;;;;;;;9.18;3.75;;;;;;;;;;5082359;28;20016;-77
2023/06/17 13:03:18;;;;;;;3.67;3.17;;;;;;;;;;5075489;28;20030;-76
2023/06/17 13:05:46;;;;;;;5.28;3.67;;;;;;;;;;5077755;28;20039;-73
2023/06/17 13:08:11;;;;;;;4.03;3.60;;;;;;;;;;5077124;28;20029;-74
2023/06/17 13:10:36;;;;;;;3.60;2.70;;;;;;;;;;5085721;28;20036;-72
2023/06/17 13:13:02;;;;;;;3.85;2.72;;;;;;;;;;5095359;28;20273;-73
2023/06/17 13:15:29;;;;;;;2.70;2.50;;;;;;;;;;5094947;28;20031;-73
2023/06/17 13:17:55;;;;;;;3.50;2.63;;;;;;;;;;5095472;28;20266;-73
2023/06/17 13:20:22;;;;;;;3.70;2.50;;;;;;;;;;5095319;28;20504;-74
2023/06/17 13:22:47;;;;;;;2.95;2.75;;;;;;;;;;5095554;28;20027;-74
2023/06/17 13:25:12;;;;;;;3.97;2.55;;;;;;;;;;5077333;28;20028;-74
2023/06/17 13:27:38;;;;;;;5.47;2.50;;;;;;;;;;5095211;28;20111;-75
2023/06/17 13:30:04;;;;;;;3.00;2.47;;;;;;;;;;5095560;28;20615;-74
2023/06/17 13:32:29;;;;;;;2.67;2.47;;;;;;;;;;5095485;28;20028;-75
2023/06/17 13:34:55;;;;;;;3.15;2.80;;;;;;;;;;5095804;28;20016;-77
2023/06/17 13:37:21;;;;;;;5.47;2.58;;;;;;;;;;5095339;28;20069;-75
2023/06/17 13:39:46;;;;;;;3.60;2.28;;;;;;;;;;5095210;28;20020;-74
2023/06/17 13:42:11;;;;;;;3.87;2.40;;;;;;;;;;5094993;28;20475;-73
2023/06/17 13:44:37;;;;;;;4.18;2.40;;;;;;;;;;5093214;28;20052;-74
2023/06/17 13:47:03;;;;;;;3.05;2.60;;;;;;;;;;5084140;28;20108;-74
2023/06/17 13:49:28;;;;;;;3.15;2.45;;;;;;;;;;5096323;28;20016;-77
2023/06/17 13:51:53;;;;;;;3.30;2.87;;;;;;;;;;5095044;28;20101;-76
2023/06/17 13:54:20;;;;;;;6.07;2.43;;;;;;;;;;5094778;28;20289;-74
2023/06/17 13:56:46;;;;;;;3.03;2.67;;;;;;;;;;5094649;28;20269;-73
2023/06/17 13:59:12;;;;;;;5.95;3.08;;;;;;;;;;5094620;28;20051;-76
2023/06/17 14:01:37;;;;;;;3.38;2.95;;;;;;;;;;5094265;28;20024;-76
2023/06/17 14:04:03;;;;;;;3.55;3.15;;;;;;;;;;5086622;28;20027;-74
2023/06/17 14:06:31;;;;;;;4.03;2.97;;;;;;;;;;5089948;28;20028;-75
2023/06/17 14:08:56;;;;;;;3.60;3.25;;;;;;;;;;5076203;28;20024;-80
2023/06/17 14:11:22;;;;;;;3.30;2.90;;;;;;;;;;5073601;28;20354;-74
2023/06/17 14:13:47;;;;;;;3.03;2.83;;;;;;;;;;5061403;28;20031;-77
2023/06/17 14:16:12;;;;;;;3.92;3.00;;;;;;;;;;5067261;28;20373;-77
2023/06/17 14:18:40;;;;;;;3.83;3.53;;;;;;;;;;5081954;28;20028;-78
2023/06/17 14:21:05;;;;;;;5.65;3.17;;;;;;;;;;5081856;28;20788;-80
2023/06/17 14:23:30;;;;;;;3.28;2.80;;;;;;;;;;5076713;28;20020;-75
2023/06/17 14:25:56;;;;;;;4.27;2.50;;;;;;;;;;5083561;28;20451;-78
2023/06/17 14:28:22;;;;;;;3.50;3.20;;;;;;;;;;5092868;28;20035;-76
2023/06/17 14:30:48;;;;;;;5.22;3.60;;;;;;;;;;5077183;28;20363;-74
2023/06/17 14:33:14;;;;;;;7.25;3.67;;;;;;;;;;5079909;28;20056;-74
2023/06/17 14:35:40;;;;;;;4.18;3.78;;;;;;;;;;5074026;28;20048;-75
2023/06/17 14:38:05;;;;;;;4.68;3.75;;;;;;;;;;5076202;28;20221;-74